Time;durP1;ratioP1;P1;durP2;ratioP2;P2;SDS_P1;SDS_P2;PMS_P1;PMS_P2;Temp;Humidity;BMP_temperature;BMP_pressure;BME280_temperature;BME280_humidity;BME280_pressure;Samples;Min_cycle;Max_cycle;Signal;HPM_P1;HPM_P2
2021/10/26 00:01:52;;;;;;;8.45;3.22;;;9.10;99.90;;;;;;5090863;28;20047;-70
2021/10/26 00:04:20;;;;;;;7.95;3.15;;;9.10;99.90;;;;;;5089877;28;20078;-69
2021/10/26 00:06:47;;;;;;;5.90;3.50;;;9.00;99.90;;;;;;5089608;28;20051;-69
2021/10/26 00:09:15;;;;;;;8.68;3.47;;;9.00;99.90;;;;;;5088231;28;20081;-69
2021/10/26 00:11:43;;;;;;;7.07;3.08;;;8.90;99.90;;;;;;5077463;28;20052;-74
2021/10/26 00:14:10;;;;;;;8.95;3.00;;;8.90;99.90;;;;;;5089838;28;20048;-71
2021/10/26 00:16:37;;;;;;;11.70;4.22;;;8.90;99.90;;;;;;5089802;28;20139;-70
2021/10/26 00:19:03;;;;;;;11.93;4.10;;;8.90;99.90;;;;;;5091112;28;20492;-70
2021/10/26 00:21:30;;;;;;;7.57;3.83;;;8.90;99.90;;;;;;5089377;28;20055;-70
2021/10/26 00:23:57;;;;;;;10.30;3.50;;;8.90;99.90;;;;;;5093262;28;20920;-70
2021/10/26 00:26:24;;;;;;;9.35;4.13;;;8.90;99.90;;;;;;5085954;28;20415;-70
2021/10/26 00:28:53;;;;;;;12.82;4.10;;;8.90;99.90;;;;;;5089387;28;20058;-71
2021/10/26 00:31:20;;;;;;;10.25;4.32;;;8.90;99.90;;;;;;5090787;28;20074;-70
2021/10/26 00:33:47;;;;;;;9.43;4.25;;;8.90;99.90;;;;;;5094398;28;20376;-71
2021/10/26 00:36:14;;;;;;;11.52;4.38;;;8.90;99.90;;;;;;5089618;28;20055;-70
2021/10/26 00:38:41;;;;;;;9.00;3.75;;;8.90;99.90;;;;;;5090144;28;20059;-71
2021/10/26 00:41:09;;;;;;;8.88;3.53;;;8.90;99.90;;;;;;5092529;28;20067;-70
2021/10/26 00:43:36;;;;;;;17.60;4.78;;;8.90;99.90;;;;;;5089340;28;20489;-70
2021/10/26 00:46:03;;;;;;;6.60;3.83;;;8.90;99.90;;;;;;5090103;28;20100;-70
2021/10/26 00:48:30;;;;;;;13.73;4.53;;;8.90;99.90;;;;;;5089586;28;20044;-69
2021/10/26 00:50:57;;;;;;;9.75;3.78;;;8.90;99.90;;;;;;5089072;28;21018;-70
2021/10/26 00:53:24;;;;;;;8.32;4.68;;;8.90;99.90;;;;;;5089144;28;20075;-71
2021/10/26 00:55:52;;;;;;;8.43;4.35;;;8.90;99.90;;;;;;5088531;28;20047;-70
2021/10/26 00:58:20;;;;;;;9.82;4.13;;;8.90;99.90;;;;;;5055070;28;20087;-70
2021/10/26 01:00:49;;;;;;;;;;;8.90;99.90;;;;;;5072735;28;20040;-70
2021/10/26 01:03:16;;;;;;;8.02;3.97;;;8.90;99.90;;;;;;5091370;28;19927;-70
2021/10/26 01:05:43;;;;;;;7.50;3.50;;;8.90;99.90;;;;;;5088538;28;20044;-70
2021/10/26 01:08:10;;;;;;;8.57;3.45;;;8.90;99.90;;;;;;5088129;28;20047;-69
2021/10/26 01:10:37;;;;;;;6.63;3.20;;;8.90;99.90;;;;;;5091356;28;20048;-70
2021/10/26 01:13:04;;;;;;;10.07;4.05;;;8.90;99.90;;;;;;5090071;28;20067;-71
2021/10/26 01:15:33;;;;;;;7.75;2.92;;;8.90;99.90;;;;;;5072367;28;20044;-71
2021/10/26 01:17:59;;;;;;;10.95;4.10;;;9.00;99.90;;;;;;5071800;28;20085;-70
2021/10/26 01:20:27;;;;;;;7.50;3.38;;;9.00;99.90;;;;;;5072175;28;20105;-71
2021/10/26 01:22:53;;;;;;;9.05;3.10;;;9.10;99.90;;;;;;5088313;28;20087;-71
2021/10/26 01:25:20;;;;;;;8.50;3.40;;;9.10;99.90;;;;;;5090343;28;20395;-71
2021/10/26 01:27:53;;;;;;;14.88;3.55;;;9.20;99.90;;;;;;5088704;28;20155;-70
2021/10/26 01:30:25;;;;;;;11.65;2.88;;;9.20;99.90;;;;;;5088830;28;20475;-70
2021/10/26 01:32:53;;;;;;;4.97;2.72;;;9.20;99.90;;;;;;5093346;28;20057;-71
2021/10/26 01:35:20;;;;;;;6.45;3.00;;;9.20;99.90;;;;;;5089636;28;20063;-70
2021/10/26 01:37:47;;;;;;;5.55;2.40;;;9.30;99.90;;;;;;5071858;28;20052;-71
2021/10/26 01:40:14;;;;;;;7.20;2.97;;;9.20;99.90;;;;;;5088924;28;20079;-70
2021/10/26 01:42:41;;;;;;;6.15;2.67;;;9.30;99.90;;;;;;5068324;28;20132;-69
2021/10/26 01:45:08;;;;;;;11.52;2.97;;;9.20;99.90;;;;;;5071649;28;20051;-70
2021/10/26 01:47:35;;;;;;;10.30;3.20;;;9.30;99.90;;;;;;5087815;28;20040;-71
2021/10/26 01:50:04;;;;;;;8.70;3.65;;;9.30;99.90;;;;;;5088525;28;20048;-70
2021/10/26 01:52:32;;;;;;;12.98;3.13;;;9.30;99.90;;;;;;5088435;28;20090;-70
2021/10/26 01:55:01;;;;;;;;;;;9.30;99.90;;;;;;5089534;28;20052;-70
2021/10/26 01:57:28;;;;;;;9.00;3.25;;;9.30;99.90;;;;;;5089758;28;19946;-71
2021/10/26 01:59:56;;;;;;;9.40;2.72;;;9.30;99.90;;;;;;5091043;28;20100;-70
2021/10/26 02:02:24;;;;;;;8.80;2.63;;;9.20;99.90;;;;;;5103190;28;20088;-70
2021/10/26 02:04:52;;;;;;;7.85;2.47;;;9.20;99.90;;;;;;5090831;28;20790;-70
2021/10/26 02:07:19;;;;;;;5.65;2.50;;;9.20;99.90;;;;;;5092167;28;20552;-69
2021/10/26 02:09:46;;;;;;;8.35;2.97;;;9.20;99.90;;;;;;5096915;28;20043;-70
2021/10/26 02:12:14;;;;;;;8.38;2.90;;;9.20;99.90;;;;;;5074835;28;20040;-70
2021/10/26 02:14:41;;;;;;;7.65;3.10;;;9.20;99.90;;;;;;5093656;28;20176;-70
2021/10/26 02:17:08;;;;;;;12.30;3.35;;;9.10;99.90;;;;;;5075061;28;20044;-70
2021/10/26 02:19:36;;;;;;;15.52;4.25;;;9.10;99.90;;;;;;5091632;28;20074;-71
2021/10/26 02:22:03;;;;;;;6.38;2.70;;;9.10;99.90;;;;;;5091097;28;20044;-71
2021/10/26 02:24:30;;;;;;;5.72;2.80;;;9.10;99.90;;;;;;5058464;28;20505;-71
2021/10/26 02:26:58;;;;;;;8.63;2.97;;;9.10;99.90;;;;;;5091997;28;20056;-70
2021/10/26 02:29:25;;;;;;;6.10;2.97;;;9.10;99.90;;;;;;5094788;28;20048;-70
2021/10/26 02:31:54;;;;;;;11.18;2.92;;;9.10;99.90;;;;;;5093838;28;20050;-71
2021/10/26 02:34:21;;;;;;;8.30;2.50;;;9.10;99.90;;;;;;5092652;28;20040;-70
2021/10/26 02:36:51;;;;;;;15.82;4.40;;;9.20;99.90;;;;;;5090870;28;20048;-72
2021/10/26 02:39:18;;;;;;;5.10;2.58;;;9.20;99.90;;;;;;5092667;28;20081;-70
2021/10/26 02:41:45;;;;;;;4.38;2.28;;;9.30;99.90;;;;;;5090119;28;20052;-70
2021/10/26 02:44:12;;;;;;;7.07;2.45;;;9.30;99.90;;;;;;5075016;28;20106;-70
2021/10/26 02:46:38;;;;;;;5.60;2.95;;;9.30;99.90;;;;;;5093167;28;20407;-70
2021/10/26 02:49:06;;;;;;;7.32;2.85;;;9.40;99.90;;;;;;5092155;28;20535;-71
2021/10/26 02:51:33;;;;;;;13.13;2.67;;;9.40;99.90;;;;;;5090781;28;20040;-71
2021/10/26 02:54:01;;;;;;;6.63;2.90;;;9.50;99.90;;;;;;5090656;28;20065;-70
2021/10/26 02:56:28;;;;;;;8.60;3.08;;;9.70;99.90;;;;;;5075276;28;20051;-70
2021/10/26 02:58:55;;;;;;;10.32;3.15;;;9.70;99.90;;;;;;5091648;28;20086;-70
2021/10/26 03:01:24;;;;;;;9.43;2.70;;;9.90;99.90;;;;;;5091438;28;20039;-70
2021/10/26 03:03:51;;;;;;;5.72;2.20;;;9.90;99.90;;;;;;5074143;28;20091;-71
2021/10/26 03:06:19;;;;;;;7.07;2.53;;;10.00;99.90;;;;;;5090915;28;20052;-71
2021/10/26 03:08:47;;;;;;;6.55;2.40;;;10.00;99.90;;;;;;5090212;28;20071;-71
2021/10/26 03:11:14;;;;;;;9.90;2.85;;;10.00;99.90;;;;;;5096572;28;20051;-69
2021/10/26 03:13:44;;;;;;;6.15;2.15;;;10.10;99.90;;;;;;5070910;28;20052;-70
2021/10/26 03:16:11;;;;;;;6.57;2.80;;;10.10;99.90;;;;;;5088498;28;20032;-70
2021/10/26 03:18:38;;;;;;;6.10;2.50;;;10.10;99.90;;;;;;5091282;28;20052;-70
2021/10/26 03:21:05;;;;;;;10.98;2.42;;;10.10;99.90;;;;;;5090532;28;20066;-70
2021/10/26 03:23:32;;;;;;;6.90;2.33;;;10.20;99.90;;;;;;5091429;28;20046;-70
2021/10/26 03:25:59;;;;;;;5.88;2.72;;;10.20;99.90;;;;;;5090545;28;20060;-70
2021/10/26 03:28:27;;;;;;;7.18;2.35;;;10.20;99.90;;;;;;5090698;28;20059;-70
2021/10/26 03:30:54;;;;;;;9.15;2.35;;;10.30;99.90;;;;;;5074189;28;20059;-70
2021/10/26 03:33:21;;;;;;;6.32;2.15;;;10.30;99.90;;;;;;5094932;28;20499;-70
2021/10/26 03:35:50;;;;;;;6.60;2.25;;;10.30;99.90;;;;;;5090425;28;20476;-70
2021/10/26 03:38:18;;;;;;;7.57;2.60;;;10.40;99.90;;;;;;5091466;28;20048;-69
2021/10/26 03:40:45;;;;;;;11.02;2.95;;;10.40;99.90;;;;;;5074886;28;20089;-70
2021/10/26 03:43:11;;;;;;;6.13;2.22;;;10.40;99.90;;;;;;5091500;28;20577;-70
2021/10/26 03:45:41;;;;;;;10.80;2.15;;;10.40;99.90;;;;;;5070323;28;20068;-70
2021/10/26 03:48:09;;;;;;;5.05;2.00;;;10.50;99.90;;;;;;5091307;28;20130;-70
2021/10/26 03:50:36;;;;;;;7.10;2.45;;;10.50;99.90;;;;;;5085723;28;20067;-71
2021/10/26 03:53:03;;;;;;;8.35;2.50;;;10.50;99.90;;;;;;5072280;28;20124;-70
2021/10/26 03:55:30;;;;;;;4.75;2.10;;;10.50;99.90;;;;;;5070138;28;20053;-70
2021/10/26 03:57:57;;;;;;;6.88;2.47;;;10.60;99.90;;;;;;5089926;28;20052;-70
2021/10/26 04:00:24;;;;;;;10.57;2.97;;;10.60;99.90;;;;;;5091086;28;20044;-70
2021/10/26 04:02:51;;;;;;;10.70;2.50;;;10.60;99.90;;;;;;5101359;28;20040;-70
2021/10/26 04:05:25;;;;;;;10.93;3.25;;;10.60;99.90;;;;;;5090510;28;20557;-71
2021/10/26 04:07:56;;;;;;;8.82;2.38;;;10.60;99.90;;;;;;5090089;28;20048;-71
2021/10/26 04:10:46;;;;;;;6.28;2.25;;;10.60;99.90;;;;;;5090098;28;20459;-71
2021/10/26 04:13:13;;;;;;;11.00;2.72;;;10.60;99.90;;;;;;5090707;28;20059;-71
2021/10/26 04:15:40;;;;;;;10.05;2.65;;;10.60;99.90;;;;;;5090420;28;20052;-70
2021/10/26 04:18:07;;;;;;;8.85;2.45;;;10.60;99.90;;;;;;5089776;28;20051;-71
2021/10/26 04:20:34;;;;;;;7.75;2.63;;;10.60;99.90;;;;;;5090666;28;20044;-71
2021/10/26 04:23:01;;;;;;;6.50;2.38;;;10.70;99.90;;;;;;5090398;28;20048;-71
2021/10/26 04:25:30;;;;;;;7.55;3.40;;;10.70;99.90;;;;;;5088971;28;20483;-70
2021/10/26 04:27:57;;;;;;;6.40;2.50;;;10.70;99.90;;;;;;5089081;28;20056;-71
2021/10/26 04:30:24;;;;;;;5.35;2.42;;;10.70;99.90;;;;;;5090785;28;20059;-70
2021/10/26 04:32:51;;;;;;;5.95;2.33;;;10.70;99.90;;;;;;5108084;28;20051;-72
2021/10/26 04:35:18;;;;;;;6.68;2.80;;;10.80;99.90;;;;;;5108194;28;20378;-69
2021/10/26 04:37:45;;;;;;;6.40;2.40;;;10.80;99.90;;;;;;5090818;28;20095;-70
2021/10/26 04:40:12;;;;;;;8.45;2.83;;;10.80;99.90;;;;;;5094251;28;20044;-71
2021/10/26 04:42:39;;;;;;;6.13;2.78;;;10.80;99.90;;;;;;5086297;28;20131;-71
2021/10/26 04:45:06;;;;;;;5.55;2.67;;;10.80;99.90;;;;;;5087402;28;20043;-71
2021/10/26 04:47:33;;;;;;;7.32;3.30;;;10.90;99.90;;;;;;5089606;28;20436;-71
2021/10/26 04:50:00;;;;;;;7.70;2.83;;;10.90;99.90;;;;;;5088324;28;20488;-71
2021/10/26 04:52:27;;;;;;;7.38;2.80;;;10.90;99.90;;;;;;5072058;28;20052;-71
2021/10/26 04:54:54;;;;;;;10.80;3.53;;;10.90;99.90;;;;;;5090375;28;20063;-71
2021/10/26 04:57:21;;;;;;;8.55;3.28;;;10.90;99.90;;;;;;5088392;28;20036;-70
2021/10/26 04:59:48;;;;;;;6.45;2.60;;;10.90;99.90;;;;;;5088225;28;20044;-70
2021/10/26 05:02:15;;;;;;;14.02;3.28;;;10.90;99.90;;;;;;5088842;28;20067;-70
2021/10/26 05:04:44;;;;;;;6.38;2.88;;;11.00;99.90;;;;;;5083644;28;20077;-71
2021/10/26 05:07:12;;;;;;;7.80;2.60;;;11.00;99.90;;;;;;5090480;28;20047;-70
2021/10/26 05:09:39;;;;;;;7.60;2.85;;;11.00;99.90;;;;;;5088451;28;20052;-69
2021/10/26 05:12:06;;;;;;;6.57;2.83;;;11.00;99.90;;;;;;5071550;28;20036;-70
2021/10/26 05:14:33;;;;;;;7.53;2.92;;;10.90;99.90;;;;;;5088225;28;20048;-70
2021/10/26 05:17:03;;;;;;;4.70;2.90;;;10.90;99.90;;;;;;5087468;28;20048;-70
2021/10/26 05:19:31;;;;;;;5.32;2.83;;;10.90;99.90;;;;;;5072485;28;20059;-72
2021/10/26 05:21:58;;;;;;;9.52;3.40;;;10.90;99.90;;;;;;5090184;28;20048;-71
2021/10/26 05:24:25;;;;;;;5.45;2.65;;;10.80;99.90;;;;;;5089374;28;20052;-71
2021/10/26 05:26:52;;;;;;;6.00;3.13;;;10.80;99.90;;;;;;5089820;28;20056;-70
2021/10/26 05:29:20;;;;;;;6.30;3.10;;;10.80;99.90;;;;;;5087701;28;20491;-69
2021/10/26 05:31:47;;;;;;;5.60;3.15;;;10.70;99.90;;;;;;5092716;28;20126;-70
2021/10/26 05:34:14;;;;;;;7.20;3.30;;;10.70;99.90;;;;;;5089507;28;20094;-70
2021/10/26 05:36:41;;;;;;;242.55;203.23;;;10.70;99.90;;;;;;5093424;28;20059;-70
2021/10/26 05:39:10;;;;;;;24.90;17.85;;;10.70;99.90;;;;;;5084868;28;20549;-70
2021/10/26 05:41:37;;;;;;;14.65;8.93;;;10.70;99.90;;;;;;5104080;28;20051;-71
2021/10/26 05:44:04;;;;;;;7.40;4.85;;;10.60;99.90;;;;;;5075644;28;20055;-70
2021/10/26 05:46:31;;;;;;;8.18;4.32;;;10.60;99.90;;;;;;5092190;28;20117;-70
2021/10/26 05:49:00;;;;;;;5.85;3.65;;;10.60;99.90;;;;;;5075376;28;20157;-70
2021/10/26 05:51:27;;;;;;;6.68;3.88;;;10.60;99.90;;;;;;5075193;28;20066;-70
2021/10/26 05:53:54;;;;;;;8.18;3.15;;;10.60;99.90;;;;;;5092367;28;20502;-80
2021/10/26 05:56:23;;;;;;;279.02;217.25;;;10.50;99.90;;;;;;5091657;28;20070;-81
2021/10/26 05:58:53;;;;;;;40.20;30.20;;;10.50;99.90;;;;;;5091841;28;20058;-71
2021/10/26 06:01:22;;;;;;;15.98;10.15;;;10.40;99.90;;;;;;5084006;28;20083;-77
2021/10/26 06:03:50;;;;;;;9.07;4.68;;;10.40;99.90;;;;;;5091845;28;20139;-75
2021/10/26 06:06:17;;;;;;;8.07;3.10;;;10.30;99.90;;;;;;5075437;28;20044;-75
2021/10/26 06:08:45;;;;;;;4.55;2.60;;;10.30;99.90;;;;;;5092529;28;20048;-75
2021/10/26 06:11:14;;;;;;;201.32;154.75;;;10.30;99.90;;;;;;5093228;28;20083;-74
2021/10/26 06:13:47;;;;;;;42.42;34.10;;;10.20;99.90;;;;;;5092256;28;20048;-74
2021/10/26 06:16:14;;;;;;;20.38;14.52;;;10.20;99.90;;;;;;5091257;28;20088;-74
2021/10/26 06:18:41;;;;;;;8.70;5.88;;;10.20;99.90;;;;;;5091335;28;20434;-74
2021/10/26 06:21:08;;;;;;;5.22;2.40;;;10.20;99.90;;;;;;5090849;28;20052;-74
2021/10/26 06:23:35;;;;;;;5.38;2.15;;;10.20;99.90;;;;;;5072940;28;20084;-75
2021/10/26 06:26:02;;;;;;;5.05;1.80;;;10.20;99.90;;;;;;5092502;28;20131;-74
2021/10/26 06:28:29;;;;;;;4.63;1.77;;;10.10;99.90;;;;;;5092258;28;20052;-75
2021/10/26 06:30:56;;;;;;;4.28;1.90;;;10.20;99.90;;;;;;5074974;28;20048;-75
2021/10/26 06:33:23;;;;;;;3.97;1.60;;;10.20;99.90;;;;;;5092415;28;20055;-73
2021/10/26 06:35:50;;;;;;;4.13;1.50;;;10.20;99.90;;;;;;5092778;28;20070;-74
2021/10/26 06:38:18;;;;;;;4.65;1.70;;;10.10;99.90;;;;;;5091159;28;20044;-74
2021/10/26 06:40:45;;;;;;;2.28;1.58;;;10.10;99.90;;;;;;5091246;28;20048;-74
2021/10/26 06:43:12;;;;;;;5.53;2.78;;;10.10;99.90;;;;;;5089197;28;20044;-74
2021/10/26 06:45:39;;;;;;;4.03;1.90;;;10.10;99.90;;;;;;5087816;28;20055;-70
2021/10/26 06:48:05;;;;;;;4.20;1.98;;;10.10;99.90;;;;;;5088011;28;20151;-74
2021/10/26 06:50:34;;;;;;;4.60;2.08;;;10.10;99.90;;;;;;5072416;28;20052;-74
2021/10/26 06:53:00;;;;;;;3.65;2.08;;;10.10;99.90;;;;;;5087988;28;20052;-75
2021/10/26 06:55:28;;;;;;;5.65;2.28;;;10.10;99.90;;;;;;5088283;28;20119;-73
2021/10/26 06:57:55;;;;;;;7.47;2.40;;;10.10;99.90;;;;;;5089177;28;20445;-73
2021/10/26 07:00:23;;;;;;;5.28;2.42;;;10.10;99.90;;;;;;5088423;28;20044;-73
2021/10/26 07:02:54;;;;;;;5.07;2.83;;;10.00;99.90;;;;;;5075931;28;20044;-74
2021/10/26 07:05:25;;;;;;;7.07;3.50;;;10.00;99.90;;;;;;5087727;28;20055;-73
2021/10/26 07:07:52;;;;;;;7.90;2.85;;;10.00;99.90;;;;;;5088929;28;20101;-73
2021/10/26 07:10:19;;;;;;;6.45;3.00;;;10.00;99.90;;;;;;5094664;28;20036;-74
2021/10/26 07:12:46;;;;;;;4.93;2.80;;;10.00;99.90;;;;;;5089235;28;20094;-66
2021/10/26 07:15:14;;;;;;;4.78;3.25;;;10.00;99.90;;;;;;5089558;28;20530;-74
2021/10/26 07:17:42;;;;;;;10.30;3.83;;;10.00;99.90;;;;;;5076137;28;20119;-74
2021/10/26 07:20:11;;;;;;;5.15;2.95;;;10.00;99.90;;;;;;5122700;27;20092;-74
2021/10/26 07:22:38;;;;;;;6.50;2.70;;;10.00;99.90;;;;;;5078751;28;20102;-73
2021/10/26 07:25:08;;;;;;;6.68;3.45;;;10.10;99.90;;;;;;5088596;28;20082;-73
2021/10/26 07:27:36;;;;;;;10.40;3.35;;;10.10;99.90;;;;;;5056612;28;20044;-73
2021/10/26 07:30:05;;;;;;;7.35;3.38;;;10.10;99.90;;;;;;5088230;28;20040;-75
2021/10/26 07:32:33;;;;;;;108.13;77.45;;;10.20;99.90;;;;;;5094798;28;20085;-71
2021/10/26 07:35:00;;;;;;;30.75;24.55;;;10.20;99.90;;;;;;5086781;28;20131;-74
2021/10/26 07:37:37;;;;;;;17.02;7.55;;;10.20;99.90;;;;;;5087696;28;20168;-76
2021/10/26 07:40:05;;;;;;;7.47;5.20;;;10.20;99.90;;;;;;5089176;28;20047;-79
2021/10/26 07:42:32;;;;;;;8.90;4.10;;;10.30;99.90;;;;;;5095591;28;20059;-78
2021/10/26 07:44:59;;;;;;;7.88;3.63;;;10.30;99.90;;;;;;5089581;28;20055;-76
2021/10/26 07:47:26;;;;;;;4.43;3.28;;;10.30;99.90;;;;;;5087479;28;20055;-76
2021/10/26 07:49:54;;;;;;;8.13;3.17;;;10.30;99.90;;;;;;5088228;28;20079;-77
2021/10/26 07:52:21;;;;;;;7.47;2.88;;;10.30;99.90;;;;;;5087679;28;20054;-76
2021/10/26 07:54:53;;;;;;;6.30;3.05;;;10.40;99.90;;;;;;5072013;28;20048;-76
2021/10/26 07:57:21;;;;;;;9.32;3.10;;;10.40;99.90;;;;;;5088154;28;20454;-79
2021/10/26 07:59:51;;;;;;;5.80;2.72;;;10.50;99.90;;;;;;5087823;28;20051;-74
2021/10/26 08:02:19;;;;;;;6.85;2.67;;;10.60;99.90;;;;;;5099172;28;20056;-76
2021/10/26 08:04:49;;;;;;;5.93;3.22;;;10.60;99.90;;;;;;5104384;28;20055;-76
2021/10/26 08:07:19;;;;;;;5.90;2.58;;;10.70;99.90;;;;;;5071979;28;20047;-76
2021/10/26 08:09:50;;;;;;;4.05;2.55;;;10.80;99.90;;;;;;5060147;28;20052;-77
2021/10/26 08:12:18;;;;;;;7.93;2.60;;;10.90;99.90;;;;;;5108319;28;20847;-77
2021/10/26 08:14:45;;;;;;;6.00;2.13;;;11.00;99.90;;;;;;5107849;28;20051;-78
2021/10/26 08:17:12;;;;;;;11.13;2.88;;;11.00;99.90;;;;;;5090168;28;20045;-80
2021/10/26 08:19:41;;;;;;;8.07;3.70;;;11.00;99.90;;;;;;5088569;28;20127;-85
2021/10/26 08:22:13;;;;;;;8.00;3.83;;;11.10;99.90;;;;;;5087803;28;20044;-77
2021/10/26 08:24:42;;;;;;;7.35;2.85;;;11.10;99.90;;;;;;5071417;28;20051;-77
2021/10/26 08:27:10;;;;;;;9.27;2.70;;;11.20;99.90;;;;;;5086225;28;20044;-76
2021/10/26 08:29:48;;;;;;;17.15;8.55;;;11.20;99.90;;;;;;5088336;28;20572;-79
2021/10/26 08:35:21;;;;;;;9.43;4.03;;;11.20;99.90;;;;;;5091102;28;20048;-78
2021/10/26 08:37:58;;;;;;;4.68;3.58;;;11.20;99.90;;;;;;5092122;28;20482;-84
2021/10/26 08:40:26;;;;;;;60.50;45.30;;;11.30;99.90;;;;;;5076659;28;20475;-78
2021/10/26 08:42:53;;;;;;;20.73;16.83;;;11.30;99.90;;;;;;5084404;28;20085;-83
2021/10/26 08:45:21;;;;;;;11.38;5.25;;;11.40;99.90;;;;;;5085696;28;20043;-86
2021/10/26 08:47:48;;;;;;;6.60;3.75;;;11.40;99.90;;;;;;5083506;28;20055;-77
2021/10/26 08:50:16;;;;;;;6.28;3.00;;;11.50;99.90;;;;;;5084389;28;20048;-76
2021/10/26 08:52:43;;;;;;;7.43;3.30;;;11.60;99.90;;;;;;5084434;28;20052;-75
2021/10/26 08:55:10;;;;;;;6.25;3.17;;;11.70;99.90;;;;;;5084724;28;20071;-78
2021/10/26 08:57:38;;;;;;;8.73;3.03;;;11.70;99.90;;;;;;5068667;28;20063;-74
2021/10/26 09:00:06;;;;;;;5.25;2.20;;;11.80;99.90;;;;;;5085790;28;20040;-76
2021/10/26 09:02:46;;;;;;;4.80;2.33;;;11.80;99.90;;;;;;5086310;28;20040;-77
2021/10/26 09:05:15;;;;;;;6.68;2.35;;;11.80;99.90;;;;;;5060043;28;20052;-77
2021/10/26 09:08:00;;;;;;;8.20;2.63;;;11.90;99.90;;;;;;5084807;28;20475;-76
2021/10/26 09:10:29;;;;;;;6.85;2.08;;;11.90;99.90;;;;;;5089867;28;20115;-69
2021/10/26 09:18:38;;;;;;;4.18;3.00;;;12.00;99.90;;;;;;5071671;28;20841;-67
2021/10/26 09:21:05;;;;;;;4.13;2.85;;;12.10;99.90;;;;;;5084081;28;20088;-65
2021/10/26 09:23:32;;;;;;;8.15;3.67;;;12.10;99.90;;;;;;5083752;28;20040;-66
2021/10/26 09:25:59;;;;;;;6.80;3.50;;;12.20;99.90;;;;;;5042775;28;20091;-65
2021/10/26 09:28:27;;;;;;;5.95;2.85;;;12.30;99.90;;;;;;5080911;28;20124;-66
2021/10/26 09:30:58;;;;;;;7.43;2.75;;;12.30;99.90;;;;;;5066166;28;20054;-66
2021/10/26 09:33:35;;;;;;;6.03;2.10;;;12.30;99.90;;;;;;5083823;28;20040;-66
2021/10/26 09:36:27;;;;;;;6.97;1.98;;;12.40;99.90;;;;;;5077452;28;20055;-67
2021/10/26 09:39:15;;;;;;;10.15;2.70;;;12.40;99.90;;;;;;5083853;28;20162;-66
2021/10/26 09:41:54;;;;;;;10.40;3.15;;;12.40;99.90;;;;;;5082567;28;20059;-67
2021/10/26 09:44:25;;;;;;;7.20;2.53;;;12.40;99.90;;;;;;5083580;28;20048;-69
2021/10/26 09:46:59;;;;;;;7.00;2.72;;;12.50;99.90;;;;;;5082888;28;20310;-69
2021/10/26 09:49:33;;;;;;;11.23;2.65;;;12.60;99.90;;;;;;5082342;28;20054;-66
2021/10/26 09:52:17;;;;;;;;;;;12.80;99.90;;;;;;5083775;28;20674;-67
2021/10/26 09:55:11;;;;;;;12.55;2.70;;;12.90;99.90;;;;;;5082986;28;19920;-66
2021/10/26 09:57:39;;;;;;;12.23;3.92;;;13.00;99.90;;;;;;5084375;28;20398;-67
2021/10/26 10:00:07;;;;;;;9.90;3.13;;;13.10;99.90;;;;;;5066504;28;20040;-67
2021/10/26 10:02:34;;;;;;;9.05;3.58;;;13.20;99.90;;;;;;5088346;28;20083;-67
2021/10/26 10:05:06;;;;;;;11.82;2.97;;;13.30;99.90;;;;;;5082449;28;20044;-65
2021/10/26 10:07:38;;;;;;;9.45;2.65;;;13.40;99.90;;;;;;5082550;28;20056;-68
2021/10/26 10:10:07;;;;;;;12.77;3.28;;;13.40;99.90;;;;;;5074357;28;20047;-68
2021/10/26 10:12:36;;;;;;;13.20;2.80;;;13.40;99.90;;;;;;5089313;28;20464;-69
2021/10/26 10:15:09;;;;;;;14.13;2.70;;;13.40;99.90;;;;;;5082403;28;20052;-69
2021/10/26 10:17:37;;;;;;;6.75;2.45;;;13.40;99.90;;;;;;5082806;28;20572;-69
2021/10/26 10:20:10;;;;;;;8.23;2.92;;;13.50;99.90;;;;;;5052080;28;20048;-68
2021/10/26 10:22:41;;;;;;;14.02;3.13;;;13.50;99.90;;;;;;5086738;28;20067;-76
2021/10/26 10:25:09;;;;;;;10.43;2.72;;;13.60;99.90;;;;;;5087643;28;20056;-70
2021/10/26 10:27:38;;;;;;;9.82;3.88;;;13.70;99.90;;;;;;5088004;28;20090;-70
2021/10/26 10:30:06;;;;;;;22.77;12.45;;;13.80;99.90;;;;;;5077071;28;20070;-70
2021/10/26 10:32:33;;;;;;;16.85;7.22;;;13.80;99.90;;;;;;5092228;28;20127;-68
2021/10/26 10:35:01;;;;;;;9.00;3.03;;;13.90;99.90;;;;;;5089297;28;20063;-67
2021/10/26 10:37:29;;;;;;;12.63;3.40;;;13.90;99.90;;;;;;5086504;28;20067;-62
2021/10/26 10:40:00;;;;;;;18.83;4.45;;;14.00;99.90;;;;;;5091808;28;20110;-62
2021/10/26 10:42:30;;;;;;;10.82;3.10;;;14.10;99.90;;;;;;5073078;28;20145;-62
2021/10/26 10:44:59;;;;;;;9.52;3.08;;;14.30;99.90;;;;;;5088793;28;20048;-62
2021/10/26 10:47:30;;;;;;;;;;;14.40;99.90;;;;;;5071021;28;20079;-61
2021/10/26 10:49:57;;;;;;;9.82;2.83;;;14.50;99.90;;;;;;5087788;28;20030;-62
2021/10/26 10:52:33;;;;;;;11.70;2.97;;;14.50;99.90;;;;;;5070127;28;20059;-61
2021/10/26 10:55:21;;;;;;;13.52;3.30;;;14.50;99.90;;;;;;5070647;28;20043;-62
2021/10/26 10:57:48;;;;;;;7.28;2.85;;;14.50;99.70;;;;;;5088311;28;20074;-63
2021/10/26 11:00:28;;;;;;;15.73;3.38;;;14.50;99.10;;;;;;5069178;28;20040;-64
2021/10/26 11:02:57;;;;;;;12.07;3.80;;;14.50;99.60;;;;;;5087324;28;20115;-64
2021/10/26 11:05:36;;;;;;;7.32;3.05;;;14.50;99.90;;;;;;5069183;28;20078;-68
2021/10/26 11:08:07;;;;;;;;;;;14.50;99.90;;;;;;5085539;28;20048;-66
2021/10/26 11:11:03;;;;;;;11.15;2.70;;;14.60;99.90;;;;;;5091143;28;20305;-63
2021/10/26 11:13:31;;;;;;;12.77;2.95;;;14.60;99.70;;;;;;5070370;28;20117;-62
2021/10/26 11:16:00;;;;;;;10.82;2.92;;;14.60;99.50;;;;;;5088636;28;20067;-62
2021/10/26 11:18:35;;;;;;;9.35;2.85;;;14.70;99.60;;;;;;5090165;28;20059;-67
2021/10/26 11:21:05;;;;;;;13.27;3.45;;;14.80;99.40;;;;;;5104340;28;20071;-66
2021/10/26 11:23:44;;;;;;;9.20;2.97;;;14.80;99.40;;;;;;5105887;28;20074;-65
2021/10/26 11:26:16;;;;;;;11.32;3.35;;;14.90;99.70;;;;;;5049365;28;20064;-73
2021/10/26 11:29:02;;;;;;;7.05;2.45;;;15.00;99.50;;;;;;5049623;28;20049;-70
2021/10/26 11:31:31;;;;;;;12.85;3.65;;;15.10;99.90;;;;;;5052580;28;20154;-71
2021/10/26 11:34:00;;;;;;;15.50;3.88;;;15.10;99.40;;;;;;5073137;28;20205;-69
2021/10/26 11:36:32;;;;;;;10.52;3.22;;;15.30;99.60;;;;;;5066204;28;20143;-67
2021/10/26 11:39:01;;;;;;;121.72;108.70;;;15.40;99.60;;;;;;5078579;28;20040;-67
2021/10/26 11:41:30;;;;;;;25.27;17.33;;;15.50;98.90;;;;;;5105847;28;20124;-67
2021/10/26 11:44:00;;;;;;;10.70;3.95;;;15.70;99.50;;;;;;5104345;28;20501;-67
2021/10/26 11:46:44;;;;;;;16.98;4.45;;;15.70;98.10;;;;;;5102325;28;20424;-66
2021/10/26 11:49:18;;;;;;;10.02;3.63;;;15.70;98.90;;;;;;5105292;28;20051;-69
2021/10/26 11:51:49;;;;;;;8.95;3.20;;;15.80;98.20;;;;;;5086063;28;20060;-67
2021/10/26 11:54:20;;;;;;;13.15;3.75;;;15.80;98.20;;;;;;5069495;28;20101;-67
2021/10/26 11:56:58;;;;;;;12.23;3.80;;;15.80;98.30;;;;;;5065753;28;20108;-67
2021/10/26 11:59:29;;;;;;;12.55;4.30;;;15.80;97.80;;;;;;5066149;28;20048;-69
2021/10/26 12:01:59;;;;;;;11.32;3.83;;;15.80;98.40;;;;;;5080152;28;20055;-68
2021/10/26 12:04:49;;;;;;;9.95;3.53;;;15.90;97.90;;;;;;5106072;28;20525;-67
2021/10/26 12:07:17;;;;;;;14.20;3.83;;;16.00;98.10;;;;;;5067057;28;20084;-74
2021/10/26 12:09:47;;;;;;;9.60;3.28;;;16.00;97.70;;;;;;5062415;28;20100;-72
2021/10/26 12:12:22;;;;;;;11.93;3.80;;;16.00;98.00;;;;;;5086175;28;20139;-71
2021/10/26 12:14:49;;;;;;;13.68;3.60;;;16.00;97.20;;;;;;5080627;28;20059;-71
2021/10/26 12:17:26;;;;;;;9.50;3.97;;;15.90;97.00;;;;;;5070976;28;20049;-73
2021/10/26 12:20:21;;;;;;;7.20;3.05;;;15.80;97.40;;;;;;5084243;28;20048;-71
2021/10/26 12:22:56;;;;;;;8.02;3.28;;;15.80;97.50;;;;;;5060843;28;20419;-73
2021/10/26 12:25:33;;;;;;;11.75;3.20;;;15.90;97.50;;;;;;5084108;28;20091;-75
2021/10/26 12:28:07;;;;;;;13.82;6.53;;;16.00;97.40;;;;;;5085184;28;20059;-74
2021/10/26 12:30:36;;;;;;;10.70;4.95;;;16.10;97.40;;;;;;5084005;28;20158;-71
2021/10/26 12:33:19;;;;;;;7.63;3.30;;;16.10;97.30;;;;;;5100951;28;20066;-72
2021/10/26 12:36:04;;;;;;;10.30;4.10;;;16.10;97.30;;;;;;5082920;28;20341;-69
2021/10/26 12:38:35;;;;;;;8.88;3.50;;;16.10;97.00;;;;;;5078829;28;20044;-69
2021/10/26 12:41:14;;;;;;;10.63;4.63;;;16.10;96.80;;;;;;5103752;28;20054;-69
2021/10/26 12:43:42;;;;;;;11.35;3.25;;;16.10;97.00;;;;;;5101633;28;20052;-71
2021/10/26 12:46:16;;;;;;;17.58;5.80;;;16.20;97.40;;;;;;5087563;28;20127;-70
2021/10/26 12:48:43;;;;;;;17.50;10.68;;;16.20;96.70;;;;;;5069831;28;20055;-71
2021/10/26 12:51:10;;;;;;;8.63;3.85;;;16.20;96.90;;;;;;5085522;28;20066;-72
2021/10/26 12:53:42;;;;;;;14.13;4.95;;;16.30;97.20;;;;;;5070525;28;20060;-71
2021/10/26 12:56:24;;;;;;;10.75;3.08;;;16.30;97.10;;;;;;5087470;28;20517;-71
2021/10/26 12:58:55;;;;;;;9.05;4.03;;;16.40;96.90;;;;;;5085181;28;20040;-69
2021/10/26 13:01:25;;;;;;;10.73;3.33;;;16.60;96.70;;;;;;5086339;28;20052;-71
2021/10/26 13:04:14;;;;;;;10.50;3.22;;;16.60;96.60;;;;;;5085621;28;20457;-70
2021/10/26 13:06:55;;;;;;;7.93;2.85;;;16.70;96.30;;;;;;5064798;28;20488;-70